Mnt Lake Park, Maryland
Current Conditions -  °F | °C
As of 3:15 PM on Friday 21 Nov 2014 (Local Time) from K2G4 Reporting Station
Clear Clear  
Wind Chill: 13°   Ceiling: Unl
Heat Index: 23°   Visibility: 10mi
Dew Point:   Wind: 9mph
Humidity: 39%   Direction: 260°W
Pressure: 30.33"   Gusts: 16mph
Location:  39.3804°N, 79.3888°W
Report Text: K2G4 212015Z AUTO 26008G14KT 232V302 10SM CLR M05/M17 A3033 RMK AO1
Loading
Personal Weather Stations






























Interactive Weather Map New forecast layout! Learn more

10-Day Weather Forecast

Advertisements
Track Severe Weather on mobile